Time;durP1;ratioP1;P1;durP2;ratioP2;P2;SDS_P1;SDS_P2;PMS_P1;PMS_P2;Temp;Humidity;BMP_temperature;BMP_pressure;BME280_temperature;BME280_humidity;BME280_pressure;Samples;Min_cycle;Max_cycle;Signal;HPM_P1;HPM_P2
2022/01/03 00:00:19;;;;;;;3.87;2.23;;;11.00;99.90;;;;;;5062649;28;20371;-77
2022/01/03 00:03:08;;;;;;;1.93;1.60;;;11.00;99.90;;;;;;5062638;28;20425;-77
2022/01/03 00:05:54;;;;;;;2.60;2.37;;;11.10;99.90;;;;;;5035699;28;20454;-77
2022/01/03 00:08:43;;;;;;;6.23;2.37;;;11.20;99.90;;;;;;4994017;28;20385;-78
2022/01/03 00:11:27;;;;;;;2.17;1.97;;;11.20;99.90;;;;;;4968786;28;20404;-77
2022/01/03 00:14:12;;;;;;;2.43;1.70;;;11.30;99.90;;;;;;4981843;28;20567;-78
2022/01/03 00:16:57;;;;;;;3.50;2.10;;;11.30;99.90;;;;;;4997455;28;20388;-77
2022/01/03 00:19:43;;;;;;;1.83;1.73;;;11.40;99.90;;;;;;5014302;28;20428;-77
2022/01/03 00:22:34;;;;;;;5.23;1.93;;;11.40;99.90;;;;;;5002992;28;20474;-77
2022/01/03 00:25:21;;;;;;;3.87;2.50;;;11.40;99.90;;;;;;5000329;28;20956;-77
2022/01/03 00:28:24;;;;;;;2.80;2.17;;;11.40;99.90;;;;;;4986319;28;20405;-78
2022/01/03 00:31:08;;;;;;;5.03;2.67;;;11.40;99.90;;;;;;5000105;28;20488;-77
2022/01/03 00:33:59;;;;;;;9.37;2.50;;;11.50;99.90;;;;;;4985750;28;20939;-77
2022/01/03 00:36:46;;;;;;;5.47;1.60;;;11.60;99.90;;;;;;4999662;28;20409;-77
2022/01/03 00:39:32;;;;;;;4.47;3.10;;;11.60;99.90;;;;;;5014140;28;20408;-77
2022/01/03 00:42:18;;;;;;;5.00;1.50;;;11.60;99.90;;;;;;5013809;28;20868;-77
2022/01/03 00:45:05;;;;;;;1.80;1.67;;;11.50;99.90;;;;;;5000392;28;20794;-77
2022/01/03 00:47:55;;;;;;;6.40;2.87;;;11.50;99.90;;;;;;4985279;28;20607;-78
2022/01/03 00:50:41;;;;;;;1.63;1.53;;;11.40;99.90;;;;;;4999513;28;20420;-77
2022/01/03 00:53:27;;;;;;;4.30;1.90;;;11.40;99.90;;;;;;4979494;28;20496;-78
2022/01/03 00:56:20;;;;;;;4.07;2.20;;;11.40;99.90;;;;;;5016813;28;20427;-78
2022/01/03 00:59:11;;;;;;;4.63;1.90;;;11.30;99.90;;;;;;5018350;28;20456;-78
2022/01/03 01:02:00;;;;;;;10.53;3.20;;;11.30;99.90;;;;;;5016946;28;20439;-79
2022/01/03 01:04:47;;;;;;;3.90;1.40;;;11.20;99.90;;;;;;5023411;28;20395;-79
2022/01/03 01:07:32;;;;;;;5.57;1.30;;;10.90;99.90;;;;;;5023892;28;20398;-78
2022/01/03 01:10:19;;;;;;;3.43;1.40;;;10.40;99.90;;;;;;4998152;28;20489;-78
2022/01/03 01:13:09;;;;;;;1.57;1.47;;;10.10;99.90;;;;;;4983735;28;20543;-78
2022/01/03 01:15:53;;;;;;;2.33;1.40;;;9.90;99.90;;;;;;4945075;29;20827;-78
2022/01/03 01:18:39;;;;;;;7.93;2.50;;;9.80;99.90;;;;;;4959228;29;20383;-78
2022/01/03 01:21:25;;;;;;;1.20;1.10;;;9.60;99.90;;;;;;4959138;28;20527;-79
2022/01/03 01:24:11;;;;;;;2.53;1.20;;;9.50;99.90;;;;;;4958568;29;20402;-79
2022/01/03 01:29:56;;;;;;;3.60;1.40;;;9.30;99.90;;;;;;4958904;29;20979;-78
2022/01/03 01:32:44;;;;;;;3.57;1.50;;;9.10;99.90;;;;;;4946412;28;20424;-78
2022/01/03 01:35:46;;;;;;;1.33;1.20;;;9.00;99.90;;;;;;4958796;29;20437;-78
2022/01/03 01:38:34;;;;;;;1.03;0.93;;;9.10;99.90;;;;;;4963437;28;20412;-78
2022/01/03 01:41:21;;;;;;;1.20;1.03;;;9.00;99.90;;;;;;4964757;28;20464;-78
2022/01/03 01:44:09;;;;;;;1.23;1.13;;;9.10;99.90;;;;;;4977734;28;20877;-78
2022/01/03 01:47:01;;;;;;;1.37;1.10;;;9.10;99.90;;;;;;4988313;28;20455;-78
2022/01/03 01:49:47;;;;;;;1.00;0.90;;;9.10;99.90;;;;;;5016290;28;20388;-78
2022/01/03 01:52:35;;;;;;;0.90;0.90;;;9.20;99.90;;;;;;5016355;28;20409;-78
2022/01/03 01:55:20;;;;;;;1.10;1.00;;;9.30;99.90;;;;;;5076915;28;20352;-78
2022/01/03 01:58:18;;;;;;;1.30;1.20;;;9.30;99.90;;;;;;5062972;28;20485;-78
2022/01/03 02:01:08;;;;;;;1.10;1.00;;;9.40;99.90;;;;;;5050030;28;20376;-78
2022/01/03 02:04:00;;;;;;;1.50;1.10;;;9.40;99.90;;;;;;4996426;28;20485;-78
2022/01/03 02:06:48;;;;;;;1.43;1.10;;;9.50;99.90;;;;;;4996481;28;20479;-78
2022/01/03 02:09:42;;;;;;;0.90;0.90;;;9.50;99.90;;;;;;4969550;28;20416;-78
2022/01/03 02:12:27;;;;;;;2.63;1.03;;;9.50;99.90;;;;;;4982540;28;20415;-78
2022/01/03 02:15:15;;;;;;;1.37;1.00;;;9.50;99.90;;;;;;4968497;28;20400;-78
2022/01/03 02:18:00;;;;;;;1.20;1.10;;;9.60;99.90;;;;;;4983062;28;20458;-78
2022/01/03 02:20:47;;;;;;;1.70;1.60;;;9.60;99.90;;;;;;4954422;28;20811;-78
2022/01/03 02:23:32;;;;;;;1.00;0.97;;;9.70;99.90;;;;;;4943079;28;20397;-78
2022/01/03 02:26:16;;;;;;;1.00;1.00;;;9.60;99.90;;;;;;4956420;28;20981;-78
2022/01/03 02:29:01;;;;;;;1.43;1.13;;;9.50;99.90;;;;;;4947845;29;20410;-78
2022/01/03 02:31:45;;;;;;;1.20;1.10;;;9.50;99.90;;;;;;4947518;29;20483;-78
2022/01/03 02:34:30;;;;;;;3.87;1.87;;;9.60;99.90;;;;;;4891962;29;20455;-78
2022/01/03 02:37:17;;;;;;;1.57;1.40;;;9.50;99.90;;;;;;4866217;29;20437;-78
2022/01/03 02:40:04;;;;;;;3.80;1.27;;;9.60;99.90;;;;;;4885036;29;20402;-78
2022/01/03 02:42:49;;;;;;;2.00;1.17;;;9.60;99.90;;;;;;4923960;29;20925;-78
2022/01/03 02:45:34;;;;;;;1.70;1.60;;;9.50;99.90;;;;;;4951545;29;20406;-78
2022/01/03 02:48:22;;;;;;;1.70;1.40;;;9.50;99.90;;;;;;4912229;29;20484;-78
2022/01/03 02:51:08;;;;;;;1.17;1.07;;;9.60;99.90;;;;;;4932245;29;20474;-78
2022/01/03 02:53:52;;;;;;;1.33;1.23;;;9.60;99.90;;;;;;4929231;29;20813;-78
2022/01/03 02:56:39;;;;;;;1.00;1.00;;;9.50;99.90;;;;;;4942960;29;20450;-78
2022/01/03 02:59:25;;;;;;;2.27;1.07;;;9.60;99.90;;;;;;4955946;28;20563;-78
2022/01/03 03:02:09;;;;;;;3.43;1.30;;;9.60;99.90;;;;;;4956396;29;20486;-78
2022/01/03 03:04:56;;;;;;;1.40;1.23;;;9.60;99.90;;;;;;4942911;29;20405;-78
2022/01/03 03:07:43;;;;;;;1.37;1.27;;;9.60;99.90;;;;;;4955778;28;20491;-78
2022/01/03 03:10:28;;;;;;;2.30;1.10;;;9.50;99.90;;;;;;4982608;28;20429;-78
2022/01/03 03:13:14;;;;;;;1.57;1.47;;;9.50;99.90;;;;;;4955144;29;20454;-78
2022/01/03 03:16:01;;;;;;;1.73;1.33;;;9.50;99.90;;;;;;4948889;29;20397;-78
2022/01/03 03:18:47;;;;;;;1.20;1.10;;;9.40;99.90;;;;;;4986042;28;20406;-78
2022/01/03 03:21:32;;;;;;;1.20;1.10;;;9.50;99.90;;;;;;4967248;28;20425;-78
2022/01/03 03:24:16;;;;;;;1.10;1.00;;;9.30;99.90;;;;;;4994263;28;20482;-78
2022/01/03 03:27:02;;;;;;;1.20;1.10;;;9.30;99.90;;;;;;4941605;29;20511;-78
2022/01/03 03:29:50;;;;;;;1.83;1.10;;;9.30;99.90;;;;;;4956256;29;20468;-78
2022/01/03 03:32:36;;;;;;;2.07;1.53;;;9.20;99.90;;;;;;4923192;29;20481;-78
2022/01/03 03:35:21;;;;;;;1.73;1.10;;;9.20;99.90;;;;;;4924129;29;20422;-78
2022/01/03 03:38:06;;;;;;;1.20;1.00;;;9.10;99.90;;;;;;4922351;29;20446;-78
2022/01/03 03:40:52;;;;;;;1.20;1.10;;;9.10;99.90;;;;;;4934288;29;20395;-78
2022/01/03 03:43:37;;;;;;;1.87;1.37;;;9.00;99.90;;;;;;4950134;29;20385;-78
2022/01/03 03:46:22;;;;;;;1.20;1.10;;;9.00;99.90;;;;;;4904820;29;20500;-78
2022/01/03 03:49:09;;;;;;;1.73;1.10;;;9.00;99.90;;;;;;4904544;29;20810;-78
2022/01/03 03:51:54;;;;;;;3.37;1.30;;;9.00;99.90;;;;;;4919390;29;20841;-78
2022/01/03 03:54:39;;;;;;;6.50;1.30;;;9.00;99.90;;;;;;4921718;29;20430;-78
2022/01/03 03:57:23;;;;;;;1.83;1.20;;;9.00;99.90;;;;;;4933957;29;20747;-78
2022/01/03 04:00:11;;;;;;;2.70;1.40;;;9.00;99.90;;;;;;4946070;29;20409;-78
2022/01/03 04:02:56;;;;;;;2.17;1.20;;;9.00;99.90;;;;;;4966018;28;20913;-78
2022/01/03 04:05:40;;;;;;;1.37;1.27;;;9.10;99.90;;;;;;4979074;28;20953;-78
2022/01/03 04:08:26;;;;;;;1.40;1.17;;;9.00;99.90;;;;;;4979240;28;20840;-78
2022/01/03 04:11:14;;;;;;;1.37;1.27;;;8.90;99.90;;;;;;4978689;28;20993;-78
2022/01/03 04:14:03;;;;;;;3.47;1.33;;;8.90;99.90;;;;;;5007295;28;20504;-78
2022/01/03 04:16:47;;;;;;;4.87;1.70;;;8.80;99.90;;;;;;5012838;28;20396;-79
2022/01/03 04:19:34;;;;;;;1.47;1.10;;;8.80;99.90;;;;;;5064306;28;20411;-79
2022/01/03 04:22:20;;;;;;;2.60;1.80;;;8.80;99.90;;;;;;5023558;28;20426;-79
2022/01/03 04:25:05;;;;;;;1.27;1.17;;;8.90;99.90;;;;;;5030610;28;20414;-78
2022/01/03 04:27:50;;;;;;;2.20;1.47;;;8.90;99.90;;;;;;5054771;28;20430;-78
2022/01/03 04:30:36;;;;;;;1.87;1.77;;;8.80;99.90;;;;;;5055233;28;20400;-78
2022/01/03 04:33:22;;;;;;;3.53;1.70;;;9.00;99.90;;;;;;4994845;28;20473;-78
2022/01/03 04:36:10;;;;;;;4.40;2.40;;;9.00;99.90;;;;;;4974779;28;20477;-78
2022/01/03 04:38:54;;;;;;;1.63;1.40;;;8.90;99.90;;;;;;4972084;28;20416;-77
2022/01/03 04:41:38;;;;;;;1.00;0.90;;;8.80;99.90;;;;;;4970331;28;20380;-78
2022/01/03 04:44:23;;;;;;;2.03;1.50;;;8.80;99.90;;;;;;4969428;28;20449;-78
2022/01/03 04:47:08;;;;;;;1.77;1.40;;;8.80;99.90;;;;;;4979450;28;20487;-78
2022/01/03 04:49:52;;;;;;;3.93;1.67;;;8.70;99.90;;;;;;4934271;29;20405;-78
2022/01/03 04:52:37;;;;;;;2.07;1.40;;;8.80;99.90;;;;;;4929580;29;20820;-79
2022/01/03 04:55:21;;;;;;;2.50;1.10;;;8.90;99.90;;;;;;4943001;29;20723;-78
2022/01/03 04:58:06;;;;;;;4.47;1.87;;;8.90;99.90;;;;;;4930148;29;20434;-78
2022/01/03 05:00:51;;;;;;;1.97;1.37;;;9.00;99.90;;;;;;4943940;29;20392;-78
2022/01/03 05:03:36;;;;;;;8.63;1.87;;;9.00;99.90;;;;;;4955033;28;20864;-78
2022/01/03 05:06:21;;;;;;;2.10;1.20;;;9.10;99.90;;;;;;4982429;28;20400;-78
2022/01/03 05:09:05;;;;;;;5.60;1.77;;;9.00;99.90;;;;;;4973278;28;20427;-78
2022/01/03 05:11:51;;;;;;;2.70;2.10;;;9.00;99.90;;;;;;4967183;28;20404;-78
2022/01/03 05:14:35;;;;;;;1.33;1.23;;;8.90;99.90;;;;;;4967371;28;20434;-78
2022/01/03 05:17:20;;;;;;;3.10;1.40;;;8.90;99.90;;;;;;4885956;29;20422;-78
2022/01/03 05:20:06;;;;;;;2.53;1.60;;;8.90;99.90;;;;;;4891423;29;20472;-78
2022/01/03 05:22:54;;;;;;;1.37;1.27;;;8.90;99.90;;;;;;4876607;29;20426;-80
2022/01/03 05:25:38;;;;;;;1.67;1.57;;;9.00;99.90;;;;;;4888388;29;20435;-78
2022/01/03 05:28:24;;;;;;;2.83;1.50;;;9.00;99.90;;;;;;4887505;29;20435;-78
2022/01/03 05:31:09;;;;;;;4.83;1.67;;;9.00;99.90;;;;;;4899039;29;20441;-79
2022/01/03 05:33:53;;;;;;;2.10;1.50;;;9.10;99.90;;;;;;4886209;29;20571;-78
2022/01/03 05:36:39;;;;;;;1.63;1.50;;;9.00;99.90;;;;;;4836433;29;20416;-78
2022/01/03 05:39:23;;;;;;;2.20;1.73;;;9.00;99.90;;;;;;4836876;29;20443;-78
2022/01/03 05:42:08;;;;;;;3.23;1.80;;;9.10;99.90;;;;;;4823520;29;20407;-78
2022/01/03 05:44:55;;;;;;;2.13;1.50;;;9.20;99.90;;;;;;4860300;29;20421;-79
2022/01/03 05:47:42;;;;;;;1.97;1.87;;;9.30;99.90;;;;;;4836459;29;1468578;-79
2022/01/03 05:50:27;;;;;;;3.23;2.30;;;9.20;99.90;;;;;;4905259;29;20204;-78
2022/01/03 05:53:11;;;;;;;11.10;1.83;;;9.30;99.90;;;;;;4943549;29;20467;-79
2022/01/03 05:56:09;;;;;;;1.50;1.40;;;9.40;99.90;;;;;;4924562;29;20427;-78
2022/01/03 05:58:54;;;;;;;2.10;1.20;;;9.40;99.90;;;;;;4916101;29;20434;-78
2022/01/03 06:01:40;;;;;;;3.20;1.40;;;9.40;99.90;;;;;;4924832;29;20381;-78
2022/01/03 06:04:41;;;;;;;3.00;2.73;;;9.30;99.90;;;;;;4932197;29;20390;-78
2022/01/03 06:07:26;;;;;;;1.30;1.20;;;9.40;99.90;;;;;;4942942;29;20936;-78
2022/01/03 06:10:16;;;;;;;3.13;1.63;;;9.40;99.90;;;;;;4958519;29;20897;-78
2022/01/03 06:13:02;;;;;;;2.20;1.60;;;9.40;99.90;;;;;;4942877;29;20458;-78
2022/01/03 06:15:48;;;;;;;2.03;1.83;;;9.40;99.90;;;;;;4961857;28;20421;-79
2022/01/03 06:18:33;;;;;;;1.40;1.20;;;9.40;99.90;;;;;;4973736;28;20409;-78
2022/01/03 06:21:18;;;;;;;6.97;1.20;;;9.40;99.90;;;;;;4976565;28;20430;-79
2022/01/03 06:24:02;;;;;;;1.60;1.50;;;9.30;99.90;;;;;;4963277;28;20427;-78
2022/01/03 06:26:47;;;;;;;1.20;1.10;;;9.30;99.90;;;;;;5006337;28;20435;-78
2022/01/03 06:29:34;;;;;;;1.53;1.37;;;9.30;99.90;;;;;;4959091;28;20437;-79
2022/01/03 06:32:18;;;;;;;3.53;1.57;;;9.30;99.90;;;;;;4951014;28;20476;-79
2022/01/03 06:35:03;;;;;;;1.47;1.30;;;9.30;99.90;;;;;;4974464;28;20782;-78
2022/01/03 06:37:47;;;;;;;2.60;1.63;;;9.30;99.90;;;;;;4990975;28;20518;-78
2022/01/03 06:40:33;;;;;;;4.80;1.43;;;9.30;99.90;;;;;;4986544;28;20418;-79
2022/01/03 06:43:21;;;;;;;4.60;1.33;;;9.30;99.90;;;;;;4971180;28;20943;-79
2022/01/03 06:46:06;;;;;;;3.90;1.30;;;9.30;99.90;;;;;;4975740;28;20409;-79
2022/01/03 06:48:51;;;;;;;7.63;1.70;;;9.30;99.90;;;;;;4964875;28;20285;-78
2022/01/03 06:51:37;;;;;;;1.17;1.00;;;9.20;99.90;;;;;;4967326;28;20452;-80
2022/01/03 06:54:21;;;;;;;2.10;1.50;;;9.10;99.90;;;;;;5000729;28;21043;-79
2022/01/03 06:57:06;;;;;;;4.27;2.30;;;9.10;99.90;;;;;;5004473;28;20446;-79
2022/01/03 06:59:54;;;;;;;4.07;2.60;;;9.10;99.90;;;;;;4995309;28;20472;-79
2022/01/03 07:02:42;;;;;;;1.93;1.83;;;9.00;99.90;;;;;;4992580;28;20441;-79
2022/01/03 07:05:27;;;;;;;1.73;1.20;;;9.00;99.90;;;;;;5024175;28;20472;-79
2022/01/03 07:08:13;;;;;;;2.13;1.50;;;9.00;99.90;;;;;;5015405;28;20401;-79
2022/01/03 07:10:58;;;;;;;2.37;1.50;;;9.00;99.90;;;;;;5026459;28;20409;-79
2022/01/03 07:13:48;;;;;;;2.70;1.60;;;9.00;99.90;;;;;;5031639;28;20521;-78
2022/01/03 07:19:31;;;;;;;2.93;1.37;;;9.00;99.90;;;;;;5072133;28;20429;-78
2022/01/03 07:22:18;;;;;;;2.30;1.20;;;8.90;99.90;;;;;;5047501;28;20446;-78
2022/01/03 07:25:03;;;;;;;1.20;1.10;;;9.00;99.90;;;;;;5074992;28;20449;-79
2022/01/03 07:27:48;;;;;;;1.50;1.40;;;8.90;99.90;;;;;;5081418;28;20743;-78
2022/01/03 07:30:33;;;;;;;2.83;1.33;;;9.00;99.90;;;;;;5046399;28;20413;-79
2022/01/03 07:33:18;;;;;;;2.10;1.80;;;9.00;99.90;;;;;;5002126;28;20450;-79
2022/01/03 07:36:04;;;;;;;1.50;1.40;;;9.00;99.90;;;;;;5005478;28;20484;-78
2022/01/03 07:38:50;;;;;;;3.03;1.37;;;8.90;99.90;;;;;;5036356;28;20462;-79
2022/01/03 07:41:36;;;;;;;2.57;1.53;;;9.00;99.90;;;;;;4987796;28;21001;-79
2022/01/03 07:44:21;;;;;;;1.70;1.37;;;9.00;99.90;;;;;;4972339;28;20419;-79
2022/01/03 07:47:06;;;;;;;4.83;1.97;;;9.00;99.90;;;;;;4999456;28;20491;-79
2022/01/03 07:49:52;;;;;;;1.47;1.37;;;9.00;99.90;;;;;;4998636;28;20499;-79
2022/01/03 07:52:37;;;;;;;1.50;1.40;;;9.10;99.90;;;;;;4986106;28;20490;-79
2022/01/03 07:55:23;;;;;;;5.17;1.63;;;9.20;99.90;;;;;;4984443;28;20427;-78
2022/01/03 07:58:07;;;;;;;2.07;1.07;;;9.30;99.90;;;;;;4971562;28;20445;-78
2022/01/03 08:00:52;;;;;;;5.53;1.40;;;9.30;99.90;;;;;;4979182;28;20406;-78
2022/01/03 08:03:36;;;;;;;3.80;1.87;;;9.20;99.90;;;;;;5010139;28;20502;-79
2022/01/03 08:06:22;;;;;;;2.17;1.50;;;9.30;99.90;;;;;;5026198;28;20426;-79
2022/01/03 08:09:07;;;;;;;4.53;1.43;;;9.30;99.90;;;;;;5070041;28;20390;-79
2022/01/03 08:12:16;;;;;;;1.60;1.37;;;9.30;99.90;;;;;;5068031;28;20803;-78
2022/01/03 08:15:01;;;;;;;3.47;1.30;;;9.30;99.90;;;;;;5014610;28;20541;-79
2022/01/03 08:17:47;;;;;;;6.20;1.70;;;9.30;99.90;;;;;;5001947;28;20978;-78
2022/01/03 08:20:32;;;;;;;1.83;1.30;;;9.20;99.90;;;;;;5006282;28;20923;-78
2022/01/03 08:23:18;;;;;;;2.83;1.20;;;9.20;99.90;;;;;;5035697;28;20477;-78
2022/01/03 08:26:02;;;;;;;3.83;1.43;;;9.00;99.90;;;;;;4987345;28;20419;-78
2022/01/03 08:28:47;;;;;;;7.47;1.80;;;9.00;99.90;;;;;;4940759;29;20415;-77
2022/01/03 08:31:37;;;;;;;1.80;1.43;;;9.00;99.90;;;;;;4922653;29;20423;-77
2022/01/03 08:34:40;;;;;;;1.53;1.40;;;8.90;99.90;;;;;;4853108;29;20850;-79
2022/01/03 08:37:25;;;;;;;4.33;2.67;;;9.00;99.90;;;;;;4860732;29;20449;-78
2022/01/03 08:40:11;;;;;;;1.93;1.73;;;9.10;99.90;;;;;;4858956;29;20425;-78
2022/01/03 08:42:56;;;;;;;1.60;1.50;;;9.20;99.90;;;;;;4873013;29;20471;-78
2022/01/03 08:45:42;;;;;;;4.17;2.10;;;9.20;99.90;;;;;;4871494;29;20424;-78
2022/01/03 08:48:28;;;;;;;1.93;1.40;;;9.10;99.90;;;;;;4829484;29;20549;-78
2022/01/03 08:51:12;;;;;;;2.03;1.70;;;9.30;99.90;;;;;;4841109;29;20490;-78
2022/01/03 08:53:57;;;;;;;4.90;1.40;;;9.20;99.90;;;;;;4846668;29;20463;-79
2022/01/03 08:56:42;;;;;;;4.10;1.43;;;9.30;99.90;;;;;;4835797;29;20479;-79
2022/01/03 08:59:27;;;;;;;4.43;1.90;;;9.40;99.90;;;;;;4868826;29;20500;-79
2022/01/03 09:02:11;;;;;;;2.40;1.30;;;9.50;99.90;;;;;;4882896;29;20437;-78
2022/01/03 09:04:56;;;;;;;1.77;1.33;;;9.50;99.90;;;;;;4861493;29;20449;-78
2022/01/03 09:07:42;;;;;;;1.70;1.60;;;9.60;99.90;;;;;;4891484;29;20395;-78
2022/01/03 09:10:28;;;;;;;4.83;2.30;;;9.90;99.90;;;;;;4872096;29;20412;-79
2022/01/03 09:13:15;;;;;;;3.90;1.60;;;10.20;99.90;;;;;;4882041;29;20440;-79
2022/01/03 09:16:04;;;;;;;2.03;1.80;;;10.10;99.90;;;;;;4909212;29;20509;-78
2022/01/03 09:18:50;;;;;;;3.30;2.90;;;9.90;99.90;;;;;;4933682;29;21039;-79
2022/01/03 09:21:36;;;;;;;6.03;1.97;;;9.90;99.90;;;;;;4923205;29;20450;-80
2022/01/03 09:24:29;;;;;;;5.20;3.73;;;10.10;99.90;;;;;;4933359;28;20480;-79
2022/01/03 09:30:14;;;;;;;3.87;2.50;;;10.00;99.90;;;;;;4990655;28;20428;-78
2022/01/03 09:33:21;;;;;;;2.53;1.70;;;10.00;99.90;;;;;;4986160;28;20479;-78
2022/01/03 09:36:05;;;;;;;3.93;1.63;;;9.80;99.90;;;;;;4959953;28;20474;-79
2022/01/03 09:38:51;;;;;;;4.03;1.97;;;9.90;99.90;;;;;;4961507;28;20425;-79
2022/01/03 09:41:43;;;;;;;4.07;1.73;;;10.10;99.90;;;;;;4942604;29;20534;-79
2022/01/03 09:44:31;;;;;;;2.70;2.17;;;10.20;99.90;;;;;;4966035;28;20470;-79
2022/01/03 09:47:18;;;;;;;6.00;2.50;;;10.80;99.90;;;;;;4964977;28;20530;-80
2022/01/03 09:50:02;;;;;;;2.10;1.80;;;10.70;99.90;;;;;;4977666;28;20473;-80
2022/01/03 09:52:48;;;;;;;4.20;1.60;;;11.20;99.90;;;;;;4990323;28;20612;-80
2022/01/03 09:55:34;;;;;;;3.80;1.80;;;11.10;99.90;;;;;;4991034;28;20829;-80
2022/01/03 09:58:19;;;;;;;5.57;1.70;;;11.00;99.90;;;;;;4986455;28;20406;-79
2022/01/03 10:01:04;;;;;;;2.53;1.33;;;10.60;99.90;;;;;;4983485;28;20570;-81
2022/01/03 10:03:49;;;;;;;5.27;2.00;;;10.50;99.90;;;;;;4990593;28;20469;-81
2022/01/03 10:06:34;;;;;;;4.20;2.23;;;10.30;99.90;;;;;;5021548;28;20475;-81
2022/01/03 10:09:25;;;;;;;3.10;1.53;;;10.20;99.90;;;;;;4999805;28;20578;-79
2022/01/03 10:12:13;;;;;;;4.00;1.57;;;9.90;99.90;;;;;;4979991;28;20536;-79
2022/01/03 10:14:58;;;;;;;4.07;1.90;;;9.70;99.90;;;;;;4995840;28;20999;-79
2022/01/03 10:17:47;;;;;;;13.40;3.50;;;9.70;99.90;;;;;;5001383;28;20407;-79
2022/01/03 10:20:49;;;;;;;6.63;1.70;;;9.60;99.90;;;;;;5027907;28;20767;-79
2022/01/03 10:23:36;;;;;;;5.27;1.63;;;9.60;99.90;;;;;;4999509;28;20816;-78
2022/01/03 10:26:21;;;;;;;5.77;2.00;;;9.80;99.90;;;;;;4978435;28;20517;-78
2022/01/03 10:29:25;;;;;;;2.83;1.60;;;10.00;99.90;;;;;;4951254;28;20979;-79
2022/01/03 10:32:17;;;;;;;6.03;2.33;;;10.10;99.90;;;;;;4965602;28;20941;-79
2022/01/03 10:35:15;;;;;;;5.00;2.43;;;10.00;99.90;;;;;;4967913;28;20464;-79
2022/01/03 10:38:00;;;;;;;4.70;1.90;;;9.80;99.90;;;;;;4980050;28;20465;-79
2022/01/03 10:40:45;;;;;;;7.60;2.70;;;9.90;99.90;;;;;;4935152;29;20495;-79
2022/01/03 10:43:34;;;;;;;4.83;2.77;;;9.80;99.90;;;;;;4942494;29;20447;-78
2022/01/03 10:46:25;;;;;;;6.47;1.70;;;9.70;99.90;;;;;;4942563;29;20389;-78
2022/01/03 10:49:15;;;;;;;3.73;3.00;;;9.70;99.90;;;;;;4958255;28;20417;-78
2022/01/03 10:52:18;;;;;;;2.57;2.17;;;9.80;99.90;;;;;;4966102;28;20460;-78
2022/01/03 10:55:12;;;;;;;6.70;1.77;;;9.80;99.90;;;;;;4965642;28;20494;-79
2022/01/03 10:57:59;;;;;;;5.23;2.83;;;9.90;99.90;;;;;;4918370;29;20952;-79
2022/01/03 11:00:45;;;;;;;8.00;2.60;;;9.90;99.90;;;;;;4889875;29;20458;-79
2022/01/03 11:03:40;;;;;;;5.67;2.10;;;9.80;99.90;;;;;;4907596;29;20454;-79
2022/01/03 11:06:48;;;;;;;3.00;1.90;;;9.70;99.90;;;;;;4902880;29;20991;-79
2022/01/03 11:12:30;;;;;;;7.13;2.33;;;9.80;99.90;;;;;;4915828;29;20854;-79
2022/01/03 11:15:24;;;;;;;8.63;1.83;;;9.80;99.90;;;;;;4940546;28;20575;-79
2022/01/03 11:18:15;;;;;;;2.27;2.07;;;9.70;99.90;;;;;;4907264;29;20460;-78
2022/01/03 11:21:09;;;;;;;3.03;1.83;;;9.80;99.90;;;;;;4885077;29;20485;-78
2022/01/03 11:24:09;;;;;;;5.57;1.93;;;9.90;99.90;;;;;;4902771;29;20420;-78
2022/01/03 11:26:56;;;;;;;3.30;1.63;;;9.90;99.90;;;;;;4920183;29;20465;-79
2022/01/03 11:29:42;;;;;;;5.10;1.90;;;10.00;99.90;;;;;;4922431;29;20411;-78
2022/01/03 11:32:27;;;;;;;3.97;2.27;;;10.10;99.90;;;;;;4975673;28;20453;-78
2022/01/03 11:35:15;;;;;;;3.60;2.37;;;10.10;99.90;;;;;;4968824;28;20445;-78
2022/01/03 11:38:01;;;;;;;4.87;1.70;;;10.20;99.90;;;;;;4940303;29;20415;-77
2022/01/03 11:40:48;;;;;;;1.50;1.40;;;10.20;99.90;;;;;;4906298;29;20785;-78
2022/01/03 11:43:36;;;;;;;3.57;1.77;;;10.20;99.90;;;;;;4956280;28;20823;-78
2022/01/03 11:46:22;;;;;;;4.03;1.87;;;10.20;99.90;;;;;;4978114;28;20432;-79
2022/01/03 11:49:07;;;;;;;3.43;1.97;;;10.10;99.90;;;;;;4969618;28;20437;-78
2022/01/03 11:51:53;;;;;;;3.43;1.30;;;10.00;99.90;;;;;;5019731;28;20419;-78
2022/01/03 11:54:37;;;;;;;8.47;2.33;;;9.70;99.90;;;;;;4997061;28;20450;-78
2022/01/03 11:57:40;;;;;;;4.93;1.67;;;9.70;99.90;;;;;;4992914;28;20428;-78
2022/01/03 12:06:28;;;;;;;4.10;2.17;;;9.50;99.90;;;;;;4965695;28;20447;-80
2022/01/03 12:09:15;;;;;;;11.77;2.10;;;9.70;99.90;;;;;;4976441;28;20429;-80
2022/01/03 12:12:00;;;;;;;4.93;2.77;;;9.50;99.90;;;;;;5005547;28;20516;-80
2022/01/03 12:14:47;;;;;;;1.80;1.70;;;9.50;99.90;;;;;;5026363;28;21032;-80
2022/01/03 12:17:50;;;;;;;3.97;1.50;;;9.50;99.90;;;;;;5028995;28;20481;-80
2022/01/03 12:20:45;;;;;;;3.60;1.67;;;9.40;99.90;;;;;;5022832;28;20446;-82
2022/01/03 12:23:40;;;;;;;3.27;2.53;;;9.30;99.90;;;;;;5028206;28;20467;-80
2022/01/03 12:26:26;;;;;;;5.67;2.60;;;9.30;99.90;;;;;;5033988;28;20418;-78
2022/01/03 12:29:11;;;;;;;4.20;2.03;;;9.40;99.90;;;;;;5036287;28;20400;-78
2022/01/03 12:32:11;;;;;;;2.90;1.57;;;9.50;99.90;;;;;;5021797;28;20451;-79
2022/01/03 12:35:17;;;;;;;7.97;2.80;;;9.50;99.90;;;;;;5031559;28;20451;-80
2022/01/03 12:38:12;;;;;;;12.97;3.13;;;9.60;99.90;;;;;;5073069;28;20409;-79
2022/01/03 12:40:58;;;;;;;4.87;3.33;;;9.70;99.90;;;;;;5083078;28;20400;-79
2022/01/03 12:43:49;;;;;;;6.73;2.07;;;9.70;99.90;;;;;;5076859;28;20444;-79
2022/01/03 12:46:33;;;;;;;5.13;2.80;;;9.70;99.90;;;;;;5078625;28;20464;-76
2022/01/03 12:49:33;;;;;;;3.60;2.63;;;9.80;99.90;;;;;;5083279;28;20425;-79
2022/01/03 12:52:18;;;;;;;5.63;3.07;;;9.90;99.90;;;;;;5064026;28;20401;-78
2022/01/03 12:55:03;;;;;;;7.77;3.37;;;10.00;99.90;;;;;;5085146;28;20439;-80
2022/01/03 12:57:47;;;;;;;5.27;2.70;;;10.00;99.90;;;;;;5074386;28;20451;-80
2022/01/03 13:00:41;;;;;;;7.47;2.40;;;10.00;99.90;;;;;;5072383;28;20978;-80
2022/01/03 13:03:39;;;;;;;3.70;2.90;;;9.90;99.90;;;;;;5062127;28;20459;-82
2022/01/03 13:06:32;;;;;;;4.77;2.33;;;10.10;99.90;;;;;;5080786;28;20741;-79
2022/01/03 13:09:18;;;;;;;13.23;3.10;;;10.10;99.90;;;;;;5085912;28;20402;-80
2022/01/03 13:12:05;;;;;;;8.90;3.10;;;10.20;99.90;;;;;;5083973;28;20428;-79
2022/01/03 13:14:58;;;;;;;6.10;2.93;;;10.20;99.90;;;;;;5087737;28;20483;-81
2022/01/03 13:17:43;;;;;;;7.10;2.20;;;10.10;99.90;;;;;;5094770;28;20407;-80
2022/01/03 13:20:27;;;;;;;5.60;2.30;;;10.10;99.90;;;;;;5086661;28;20430;-80
2022/01/03 13:23:17;;;;;;;2.60;1.77;;;10.10;99.90;;;;;;5087174;28;20439;-80
2022/01/03 13:26:03;;;;;;;8.23;3.23;;;10.20;99.90;;;;;;5094112;28;20415;-80
2022/01/03 13:28:49;;;;;;;7.90;3.00;;;10.20;99.90;;;;;;5086817;28;20425;-81
2022/01/03 13:31:39;;;;;;;8.17;2.60;;;10.10;99.90;;;;;;5094754;28;20797;-81
2022/01/03 13:34:29;;;;;;;5.57;2.50;;;10.10;99.90;;;;;;5086288;28;20451;-81
2022/01/03 13:37:14;;;;;;;3.37;1.77;;;10.20;99.90;;;;;;5086180;28;20420;-81
2022/01/03 13:40:00;;;;;;;2.43;2.07;;;10.20;99.90;;;;;;5083209;28;20433;-81
2022/01/03 13:42:58;;;;;;;4.93;1.73;;;10.20;99.90;;;;;;5082718;28;20938;-81
2022/01/03 13:51:54;;;;;;;6.47;2.00;;;10.20;99.90;;;;;;5061800;28;20457;-81
2022/01/03 13:54:39;;;;;;;3.70;2.47;;;10.40;99.90;;;;;;5086725;28;20540;-81
2022/01/03 13:57:24;;;;;;;9.20;4.67;;;10.30;99.90;;;;;;5084131;28;20410;-80
2022/01/03 14:00:09;;;;;;;3.13;2.00;;;10.30;99.90;;;;;;5077937;28;20432;-80
2022/01/03 14:02:54;;;;;;;1.77;1.50;;;10.30;99.90;;;;;;5079389;28;20797;-80
2022/01/03 14:05:38;;;;;;;3.27;1.80;;;10.30;99.90;;;;;;5078128;28;20424;-81
2022/01/03 14:08:30;;;;;;;5.90;2.37;;;10.50;99.90;;;;;;5095011;28;20431;-80
2022/01/03 14:11:18;;;;;;;8.17;2.97;;;10.60;99.90;;;;;;5092356;28;20425;-79
2022/01/03 14:14:14;;;;;;;7.80;2.83;;;10.60;99.90;;;;;;5087810;28;20542;-79
2022/01/03 14:17:00;;;;;;;9.17;3.53;;;10.60;99.90;;;;;;5075282;28;20504;-80
2022/01/03 14:19:45;;;;;;;3.43;1.97;;;10.70;99.90;;;;;;5068685;28;20412;-80
2022/01/03 14:22:33;;;;;;;14.87;2.50;;;10.60;99.90;;;;;;5073948;28;20518;-79
2022/01/03 14:25:23;;;;;;;14.20;3.23;;;10.50;99.90;;;;;;5068166;28;20975;-80
2022/01/03 14:28:07;;;;;;;2.97;2.67;;;10.50;99.90;;;;;;5075721;28;20894;-80
2022/01/03 14:30:52;;;;;;;9.50;2.20;;;10.60;99.90;;;;;;5076618;28;20858;-79
2022/01/03 14:33:39;;;;;;;8.67;2.63;;;10.80;99.90;;;;;;5082567;28;20807;-78
2022/01/03 14:36:23;;;;;;;1.90;1.80;;;10.70;99.90;;;;;;5080486;28;20446;-80
2022/01/03 14:39:08;;;;;;;7.13;3.00;;;10.70;99.90;;;;;;5088889;28;20407;-80
2022/01/03 14:42:07;;;;;;;10.03;1.73;;;10.70;99.90;;;;;;5075501;28;20409;-79
2022/01/03 14:44:53;;;;;;;5.43;2.50;;;10.60;99.90;;;;;;5078566;28;20919;-79
2022/01/03 14:47:37;;;;;;;6.93;2.47;;;10.60;99.90;;;;;;5067422;28;20552;-78
2022/01/03 14:50:22;;;;;;;6.13;2.00;;;10.70;99.90;;;;;;5076763;28;20873;-78
2022/01/03 14:53:07;;;;;;;3.17;2.13;;;10.60;99.90;;;;;;5042048;28;20454;-78
2022/01/03 14:55:51;;;;;;;5.40;2.43;;;10.70;99.90;;;;;;5076985;28;20432;-80
2022/01/03 14:58:36;;;;;;;2.97;2.03;;;10.80;99.90;;;;;;5067660;28;20506;-80
2022/01/03 15:01:21;;;;;;;5.43;2.20;;;10.70;99.90;;;;;;5058858;28;20234;-79